KSNK/SNK METAR and TAF weather

Enter ICAO airport designator
Station Type Date Time Source
KSNK METAR 2020/09/20 08:15 UTC NOAA

KSNK 200815Z AUTO 00000KT 7SM CLR 15/12 A3019 RMK AO2 T01460117


Station Type Date Time Source
KSNK Decoded METAR 2020/09/20 08:15 UTC NOAA

Snyder, Winston Field Airport, TX, United States (KSNK) 32-41-36N 100-57-01W
Sep 20, 2020 - 04:15 AM EDT / 2020.09.20 0815 UTC
Wind: Calm:0
Visibility: 7 mile(s):0
Sky conditions: clear
Temperature: 58.3 F (14.6 C)
Dew Point: 53.1 F (11.7 C)
Relative Humidity: 82%
Pressure (altimeter): 30.19 in. Hg (1022 hPa)
ob: KSNK 200815Z AUTO 00000KT 7SM CLR 15/12 A3019 RMK AO2 T01460117
cycle: 8

Station Type Date Time Source
KSNK TAF UTC NOAA

Error!

Example: see airport list